Time;durP1;ratioP1;P1;durP2;ratioP2;P2;SDS_P1;SDS_P2;PMS_P1;PMS_P2;Temp;Humidity;BMP_temperature;BMP_pressure;BME280_temperature;BME280_humidity;BME280_pressure;Samples;Min_cycle;Max_cycle;Signal;HPM_P1;HPM_P2
2023/05/26 00:00:57;;;;;;;;;;;22.80;52.90;;;;;;1586792;74;698;-58
2023/05/26 00:02:59;;;;;;;;;;;22.90;53.00;;;;;;1588364;74;732;-59
2023/05/26 00:05:01;;;;;;;;;;;22.90;52.90;;;;;;1589462;74;704;-59
2023/05/26 00:07:03;;;;;;;;;;;22.90;53.00;;;;;;1578152;74;1460;-57
2023/05/26 00:09:05;;;;;;;;;;;22.90;53.10;;;;;;1583960;74;1977;-59
2023/05/26 00:11:07;;;;;;;;;;;22.90;53.10;;;;;;1585914;74;772;-58
2023/05/26 00:13:09;;;;;;;;;;;22.90;53.40;;;;;;1581650;74;705;-57
2023/05/26 00:15:11;;;;;;;;;;;22.90;53.20;;;;;;1585747;74;710;-58
2023/05/26 00:17:13;;;;;;;;;;;22.80;53.10;;;;;;1589861;74;1181;-58
2023/05/26 00:19:17;;;;;;;;;;;22.80;53.10;;;;;;1570317;74;1097;-59
2023/05/26 00:21:18;;;;;;;;;;;22.90;53.20;;;;;;1596900;73;1670;-58
2023/05/26 00:23:20;;;;;;;;;;;22.80;53.00;;;;;;1577102;74;677;-59
2023/05/26 00:25:22;;;;;;;;;;;22.80;53.00;;;;;;1577768;74;712;-58
2023/05/26 00:27:24;;;;;;;;;;;22.80;52.90;;;;;;1560797;73;1182;-58
2023/05/26 00:29:26;;;;;;;;;;;22.80;53.00;;;;;;1579531;74;1917;-57
2023/05/26 00:31:29;;;;;;;;;;;22.90;53.10;;;;;;1581602;74;679;-57
2023/05/26 00:33:31;;;;;;;;;;;22.90;52.90;;;;;;1585436;74;717;-57
2023/05/26 00:35:33;;;;;;;;;;;22.90;52.90;;;;;;1578666;74;1347;-57
2023/05/26 00:37:35;;;;;;;;;;;22.90;52.80;;;;;;1570873;74;1156;-57
2023/05/26 00:39:37;;;;;;;;;;;23.00;52.90;;;;;;1581826;74;690;-57
2023/05/26 00:41:39;;;;;;;;;;;22.80;52.80;;;;;;1584573;74;733;-57
2023/05/26 00:43:41;;;;;;;;;;;22.80;52.90;;;;;;1583272;74;737;-58
2023/05/26 00:45:42;;;;;;;;;;;22.90;52.80;;;;;;1571935;74;708;-58
2023/05/26 00:47:44;;;;;;;;;;;22.90;52.80;;;;;;1576806;74;1956;-59
2023/05/26 00:49:48;;;;;;;;;;;22.90;52.70;;;;;;1577924;74;1434;-57
2023/05/26 00:51:50;;;;;;;;;;;22.90;52.80;;;;;;1580134;74;670;-58
2023/05/26 00:53:52;;;;;;;;;;;22.90;52.90;;;;;;1578156;74;832;-57
2023/05/26 00:55:54;;;;;;;;;;;22.90;53.00;;;;;;1585382;74;732;-58
2023/05/26 00:57:57;;;;;;;;;;;22.90;53.20;;;;;;1581301;74;1094;-57
2023/05/26 00:59:58;;;;;;;;;;;23.00;52.70;;;;;;1583790;74;761;-57
2023/05/26 01:02:00;;;;;;;;;;;23.00;52.50;;;;;;1575568;74;677;-57
2023/05/26 01:04:02;;;;;;;;;;;23.00;52.40;;;;;;1587959;73;1570;-57
2023/05/26 01:06:04;;;;;;;;;;;23.00;52.30;;;;;;1579589;74;744;-59
2023/05/26 01:08:06;;;;;;;;;;;23.00;52.30;;;;;;1581007;74;1949;-57
2023/05/26 01:10:08;;;;;;;;;;;23.00;52.30;;;;;;1585342;74;682;-59
2023/05/26 01:12:12;;;;;;;;;;;22.90;52.40;;;;;;1577801;74;1151;-58
2023/05/26 01:14:18;;;;;;;;;;;22.90;52.30;;;;;;1570557;74;1996;-58
2023/05/26 01:16:24;;;;;;;;;;;23.00;52.30;;;;;;1587140;74;1489;-58
2023/05/26 01:18:28;;;;;;;;;;;22.90;52.30;;;;;;1578178;73;1583;-58
2023/05/26 01:20:31;;;;;;;;;;;23.00;52.30;;;;;;1587337;74;1752;-57
2023/05/26 01:22:45;;;;;;;;;;;23.00;52.30;;;;;;1583492;74;1075;-57
2023/05/26 01:24:49;;;;;;;;;;;23.00;52.30;;;;;;1583064;74;701;-58
2023/05/26 01:26:55;;;;;;;;;;;23.00;52.40;;;;;;1589336;73;1747;-59
2023/05/26 01:28:58;;;;;;;;;;;23.00;52.30;;;;;;1583278;74;1933;-58
2023/05/26 01:31:00;;;;;;;;;;;23.00;52.40;;;;;;1586330;74;1453;-58
2023/05/26 01:33:02;;;;;;;;;;;22.90;52.40;;;;;;1579825;74;724;-59
2023/05/26 01:35:04;;;;;;;;;;;23.00;52.60;;;;;;1583656;74;769;-59
2023/05/26 01:37:06;;;;;;;;;;;22.90;52.80;;;;;;1578772;74;1193;-58
2023/05/26 01:39:08;;;;;;;;;;;22.90;52.90;;;;;;1587188;74;750;-57
2023/05/26 01:41:15;;;;;;;;;;;22.90;53.10;;;;;;1581353;74;722;-59
2023/05/26 01:43:18;;;;;;;;;;;22.90;53.10;;;;;;1579423;74;1681;-59
2023/05/26 01:45:21;;;;;;;;;;;22.90;53.10;;;;;;1586576;73;1256;-59
2023/05/26 01:47:23;;;;;;;;;;;23.00;53.10;;;;;;1580303;73;1143;-57
2023/05/26 01:49:26;;;;;;;;;;;22.90;53.10;;;;;;1574781;74;1938;-59
2023/05/26 01:51:30;;;;;;;;;;;22.90;53.20;;;;;;1578262;74;606;-57
2023/05/26 01:53:32;;;;;;;;;;;22.50;52.90;;;;;;1585023;74;721;-57
2023/05/26 01:55:36;;;;;;;;;;;22.90;53.10;;;;;;1585006;74;681;-58
2023/05/26 01:57:37;;;;;;;;;;;22.90;53.10;;;;;;1578295;74;1148;-60
2023/05/26 01:59:40;;;;;;;;;;;22.90;53.10;;;;;;1581147;74;1422;-59
2023/05/26 02:01:42;;;;;;;;;;;22.90;53.10;;;;;;1574403;74;654;-57
2023/05/26 02:03:44;;;;;;;;;;;23.00;53.10;;;;;;1581259;74;661;-58
2023/05/26 02:05:45;;;;;;;;;;;22.90;53.10;;;;;;1581777;74;701;-57
2023/05/26 02:07:47;;;;;;;;;;;22.90;53.20;;;;;;1581799;74;1144;-57
2023/05/26 02:09:50;;;;;;;;;;;22.90;53.20;;;;;;1587574;74;1924;-58
2023/05/26 02:11:52;;;;;;;;;;;23.00;53.10;;;;;;1570413;74;820;-58
2023/05/26 02:13:53;;;;;;;;;;;22.90;53.20;;;;;;1591227;74;1445;-58
2023/05/26 02:15:55;;;;;;;;;;;22.90;53.30;;;;;;1584262;73;623;-59
2023/05/26 02:17:58;;;;;;;;;;;22.90;53.50;;;;;;1582939;73;1134;-59
2023/05/26 02:20:00;;;;;;;;;;;23.00;53.60;;;;;;1574692;74;1048;-60
2023/05/26 02:22:02;;;;;;;;;;;22.90;53.60;;;;;;1582019;74;758;-57
2023/05/26 02:24:04;;;;;;;;;;;22.90;53.50;;;;;;1589061;74;757;-59
2023/05/26 02:26:06;;;;;;;;;;;23.00;53.80;;;;;;1592462;74;703;-58
2023/05/26 02:28:08;;;;;;;;;;;22.90;53.70;;;;;;1585863;73;1362;-56
2023/05/26 02:30:10;;;;;;;;;;;22.90;53.80;;;;;;1587208;74;1917;-58
2023/05/26 02:32:12;;;;;;;;;;;22.90;53.80;;;;;;1585950;74;822;-58
2023/05/26 02:34:14;;;;;;;;;;;22.90;53.70;;;;;;1593556;74;734;-58
2023/05/26 02:36:17;;;;;;;;;;;22.90;53.60;;;;;;1590867;74;720;-60
2023/05/26 02:38:19;;;;;;;;;;;22.90;53.60;;;;;;1585891;74;1202;-59
2023/05/26 02:40:21;;;;;;;;;;;22.90;53.70;;;;;;1582120;74;749;-57
2023/05/26 02:42:23;;;;;;;;;;;22.90;53.60;;;;;;1592017;74;1423;-58
2023/05/26 02:44:25;;;;;;;;;;;23.00;53.60;;;;;;1589982;73;719;-58
2023/05/26 02:46:27;;;;;;;;;;;23.00;53.30;;;;;;1596449;73;645;-57
2023/05/26 02:48:29;;;;;;;;;;;23.00;53.10;;;;;;1575517;74;1927;-57
2023/05/26 02:50:31;;;;;;;;;;;23.00;53.10;;;;;;1587710;74;744;-56
2023/05/26 02:52:33;;;;;;;;;;;23.00;53.20;;;;;;1582388;74;714;-56
2023/05/26 02:54:35;;;;;;;;;;;23.00;53.40;;;;;;1579946;74;802;-58
2023/05/26 02:56:36;;;;;;;;;;;23.00;53.10;;;;;;1580179;74;1485;-59
2023/05/26 02:58:38;;;;;;;;;;;23.00;53.00;;;;;;1588044;74;749;-56
2023/05/26 03:00:40;;;;;;;;;;;23.00;52.90;;;;;;1578618;73;722;-57
2023/05/26 03:02:42;;;;;;;;;;;23.00;52.80;;;;;;1574324;74;603;-59
2023/05/26 03:04:44;;;;;;;;;;;23.00;52.80;;;;;;1574751;74;620;-57
2023/05/26 03:06:46;;;;;;;;;;;23.00;53.00;;;;;;1578162;74;1141;-59
2023/05/26 03:08:48;;;;;;;;;;;23.00;52.90;;;;;;1592380;74;1929;-58
2023/05/26 03:10:50;;;;;;;;;;;23.00;53.00;;;;;;1587707;74;1259;-58
2023/05/26 03:12:51;;;;;;;;;;;23.00;53.00;;;;;;1584206;74;770;-59
2023/05/26 03:14:54;;;;;;;;;;;23.00;52.90;;;;;;1578298;74;791;-59
2023/05/26 03:16:56;;;;;;;;;;;23.00;53.00;;;;;;1593988;74;1129;-57
2023/05/26 03:18:58;;;;;;;;;;;23.00;53.00;;;;;;1584427;74;670;-59
2023/05/26 03:21:02;;;;;;;;;;;23.00;53.10;;;;;;1581751;74;928;-59
2023/05/26 03:23:03;;;;;;;;;;;23.00;53.10;;;;;;1569947;74;1449;-61
2023/05/26 03:25:06;;;;;;;;;;;23.00;53.20;;;;;;1586020;74;719;-58
2023/05/26 03:27:08;;;;;;;;;;;23.00;53.20;;;;;;1564446;74;1174;-58
2023/05/26 03:29:11;;;;;;;;;;;23.00;53.10;;;;;;1585692;74;1931;-58
2023/05/26 03:31:13;;;;;;;;;;;23.00;53.20;;;;;;1579619;74;710;-60
2023/05/26 03:33:15;;;;;;;;;;;22.90;53.40;;;;;;1582047;74;721;-57
2023/05/26 03:35:17;;;;;;;;;;;23.00;53.70;;;;;;1585097;74;838;-60
2023/05/26 03:37:19;;;;;;;;;;;22.90;54.10;;;;;;1575958;74;1538;-57
2023/05/26 03:39:24;;;;;;;;;;;22.90;54.00;;;;;;1577960;74;782;-60
2023/05/26 03:41:26;;;;;;;;;;;23.00;53.90;;;;;;1587931;74;681;-60
2023/05/26 03:43:28;;;;;;;;;;;22.90;53.60;;;;;;1584107;74;779;-59
2023/05/26 03:45:30;;;;;;;;;;;23.00;53.40;;;;;;1580599;74;824;-58
2023/05/26 03:47:32;;;;;;;;;;;23.00;53.20;;;;;;1586001;74;1179;-59
2023/05/26 03:49:34;;;;;;;;;;;23.00;53.10;;;;;;1580365;74;1927;-58
2023/05/26 03:51:35;;;;;;;;;;;23.00;53.10;;;;;;1583148;74;1497;-58
2023/05/26 03:53:37;;;;;;;;;;;23.00;53.10;;;;;;1578076;74;801;-60
2023/05/26 03:55:39;;;;;;;;;;;23.00;53.10;;;;;;1580444;74;803;-58
2023/05/26 03:57:41;;;;;;;;;;;23.00;53.00;;;;;;1567817;74;1140;-59
2023/05/26 03:59:43;;;;;;;;;;;23.00;53.10;;;;;;1578280;74;722;-60
2023/05/26 04:01:45;;;;;;;;;;;23.00;53.10;;;;;;1573291;74;735;-60
2023/05/26 04:03:47;;;;;;;;;;;23.00;53.00;;;;;;1585060;74;727;-60
2023/05/26 04:05:49;;;;;;;;;;;23.00;53.00;;;;;;1572349;74;1583;-57
2023/05/26 04:07:51;;;;;;;;;;;23.00;53.00;;;;;;1571825;74;1189;-59
2023/05/26 04:09:53;;;;;;;;;;;23.00;53.00;;;;;;1580192;74;1938;-59
2023/05/26 04:11:54;;;;;;;;;;;23.00;53.00;;;;;;1574528;74;753;-61
2023/05/26 04:13:56;;;;;;;;;;;23.00;53.00;;;;;;1586939;74;819;-59
2023/05/26 04:15:58;;;;;;;;;;;22.90;53.00;;;;;;1586114;74;795;-58
2023/05/26 04:18:00;;;;;;;;;;;23.00;53.00;;;;;;1589698;74;1137;-59
2023/05/26 04:20:06;;;;;;;;;;;22.90;53.30;;;;;;1580710;74;1543;-58
2023/05/26 04:22:06;;;;;;;;;;;22.90;53.20;;;;;;1568304;74;1704;-59
2023/05/26 04:24:08;;;;;;;;;;;23.00;53.10;;;;;;1586590;74;664;-60
2023/05/26 04:26:10;;;;;;;;;;;23.00;53.10;;;;;;1575827;74;835;-58
2023/05/26 04:28:13;;;;;;;;;;;23.00;53.00;;;;;;1582100;74;1161;-58
2023/05/26 04:30:16;;;;;;;;;;;23.00;52.90;;;;;;1575708;74;1919;-58
2023/05/26 04:32:20;;;;;;;;;;;23.00;52.90;;;;;;1583107;74;720;-59
2023/05/26 04:34:23;;;;;;;;;;;23.10;53.10;;;;;;1581616;74;1416;-58
2023/05/26 04:36:25;;;;;;;;;;;23.00;52.90;;;;;;1573026;74;758;-58
2023/05/26 04:38:28;;;;;;;;;;;23.00;53.00;;;;;;1579901;74;1060;-59
2023/05/26 04:40:31;;;;;;;;;;;23.00;53.00;;;;;;1576743;74;797;-59
2023/05/26 04:42:34;;;;;;;;;;;23.00;53.10;;;;;;1569785;74;1638;-60
2023/05/26 04:44:38;;;;;;;;;;;23.00;53.10;;;;;;1575387;74;720;-59
2023/05/26 04:46:40;;;;;;;;;;;23.00;53.10;;;;;;1577690;74;1201;-59
2023/05/26 04:48:42;;;;;;;;;;;23.00;53.10;;;;;;1579088;74;1491;-58
2023/05/26 04:50:45;;;;;;;;;;;23.00;53.10;;;;;;1574027;74;1911;-59
2023/05/26 04:52:46;;;;;;;;;;;23.00;53.00;;;;;;1581785;74;733;-58
2023/05/26 04:54:48;;;;;;;;;;;23.00;53.10;;;;;;1579280;74;707;-59
2023/05/26 04:56:50;;;;;;;;;;;23.00;53.00;;;;;;1582556;74;1153;-59
2023/05/26 04:58:52;;;;;;;;;;;23.00;53.30;;;;;;1577948;74;777;-57
2023/05/26 05:01:02;;;;;;;;;;;22.90;53.70;;;;;;1573511;74;745;-58
2023/05/26 05:02:58;;;;;;;;;;;22.80;53.90;;;;;;1572763;74;1616;-60
2023/05/26 05:05:01;;;;;;;;;;;22.80;53.80;;;;;;1584128;74;726;-57
2023/05/26 05:07:03;;;;;;;;;;;22.90;53.60;;;;;;1575137;74;1149;-57
2023/05/26 05:09:04;;;;;;;;;;;22.90;53.40;;;;;;1570944;74;697;-59
2023/05/26 05:11:06;;;;;;;;;;;22.90;53.20;;;;;;1578106;74;1941;-58
2023/05/26 05:13:08;;;;;;;;;;;23.00;53.10;;;;;;1572868;74;772;-58
2023/05/26 05:15:10;;;;;;;;;;;23.00;52.50;;;;;;1585627;74;678;-58
2023/05/26 05:17:12;;;;;;;;;;;23.00;53.00;;;;;;1585018;73;1220;-57
2023/05/26 05:19:14;;;;;;;;;;;23.00;53.10;;;;;;1579661;74;766;-56
2023/05/26 05:21:17;;;;;;;;;;;23.00;53.00;;;;;;1575622;74;1083;-58
2023/05/26 05:23:18;;;;;;;;;;;23.00;52.80;;;;;;1592780;74;709;-58
2023/05/26 05:25:20;;;;;;;;;;;23.00;52.70;;;;;;1590467;74;787;-58
2023/05/26 05:27:22;;;;;;;;;;;23.00;52.70;;;;;;1598179;73;1167;-59
2023/05/26 05:29:24;;;;;;;;;;;23.00;52.60;;;;;;1583162;74;1950;-58
2023/05/26 05:31:26;;;;;;;;;;;23.00;52.40;;;;;;1578217;74;1575;-58
2023/05/26 05:33:28;;;;;;;;;;;23.00;52.10;;;;;;1593318;74;962;-58
2023/05/26 05:35:30;;;;;;;;;;;22.90;52.30;;;;;;1580916;74;674;-58
2023/05/26 05:37:32;;;;;;;;;;;22.90;52.50;;;;;;1588612;74;1156;-57
2023/05/26 05:39:33;;;;;;;;;;;23.00;52.60;;;;;;1579676;74;729;-58
2023/05/26 05:41:35;;;;;;;;;;;23.00;52.60;;;;;;1582235;73;689;-58
2023/05/26 05:43:37;;;;;;;;;;;23.00;52.50;;;;;;1591721;74;796;-58
2023/05/26 05:45:39;;;;;;;;;;;23.00;52.60;;;;;;1590022;74;1720;-58
2023/05/26 05:47:41;;;;;;;;;;;23.10;52.50;;;;;;1581719;73;1207;-58
2023/05/26 05:49:44;;;;;;;;;;;23.10;52.40;;;;;;1577553;73;1929;-56
2023/05/26 05:51:45;;;;;;;;;;;23.20;52.30;;;;;;1577524;74;649;-58
2023/05/26 05:53:47;;;;;;;;;;;23.10;52.20;;;;;;1573958;74;766;-58
2023/05/26 05:55:49;;;;;;;;;;;23.20;52.10;;;;;;1577505;74;739;-56
2023/05/26 05:57:53;;;;;;;;;;;23.10;52.00;;;;;;1582640;73;1346;-57
2023/05/26 05:59:55;;;;;;;;;;;23.10;51.80;;;;;;1593666;74;2205;-58
2023/05/26 06:01:56;;;;;;;;;;;23.10;51.70;;;;;;1589453;74;719;-58
2023/05/26 06:03:58;;;;;;;;;;;23.20;51.60;;;;;;1581260;74;680;-58
2023/05/26 06:06:00;;;;;;;;;;;23.20;51.50;;;;;;1584581;74;672;-58
2023/05/26 06:08:02;;;;;;;;;;;23.10;51.40;;;;;;1579963;74;1171;-59
2023/05/26 06:10:04;;;;;;;;;;;23.10;48.80;;;;;;1584953;74;1928;-59
2023/05/26 06:12:06;;;;;;;;;;;23.00;48.40;;;;;;1586414;73;1447;-58
2023/05/26 06:14:08;;;;;;;;;;;22.90;48.20;;;;;;1592870;74;756;-59
2023/05/26 06:16:10;;;;;;;;;;;22.80;47.50;;;;;;1589463;74;663;-59
2023/05/26 06:18:12;;;;;;;;;;;22.90;47.80;;;;;;1587754;74;1118;-59
2023/05/26 06:20:14;;;;;;;;;;;22.90;48.00;;;;;;1594152;74;706;-59
2023/05/26 06:22:16;;;;;;;;;;;23.00;48.10;;;;;;1581645;74;1119;-59
2023/05/26 06:24:18;;;;;;;;;;;23.00;48.30;;;;;;1577450;74;738;-59
2023/05/26 06:26:20;;;;;;;;;;;23.00;48.40;;;;;;1576844;74;1352;-59
2023/05/26 06:28:22;;;;;;;;;;;23.10;48.40;;;;;;1572063;74;1131;-59
2023/05/26 06:30:24;;;;;;;;;;;23.10;48.20;;;;;;1577127;74;1913;-59
2023/05/26 06:32:26;;;;;;;;;;;23.10;47.30;;;;;;1581057;74;638;-59
2023/05/26 06:34:28;;;;;;;;;;;23.10;47.30;;;;;;1578048;74;761;-59
2023/05/26 06:36:30;;;;;;;;;;;23.10;46.80;;;;;;1584484;74;791;-59
2023/05/26 06:38:32;;;;;;;;;;;23.10;47.10;;;;;;1569477;74;769;-59
2023/05/26 06:40:34;;;;;;;;;;;23.20;47.40;;;;;;1577682;73;1544;-60
2023/05/26 06:42:36;;;;;;;;;;;23.20;47.10;;;;;;1586435;74;682;-59
2023/05/26 06:44:38;;;;;;;;;;;23.10;46.10;;;;;;1566569;74;749;-59
2023/05/26 06:46:40;;;;;;;;;;;23.10;46.30;;;;;;1575494;74;1183;-59
2023/05/26 06:48:42;;;;;;;;;;;23.10;45.80;;;;;;1582731;74;733;-60
2023/05/26 06:50:44;;;;;;;;;;;23.10;46.20;;;;;;1583613;74;1934;-59
2023/05/26 06:52:45;;;;;;;;;;;23.10;45.90;;;;;;1562237;74;723;-59
2023/05/26 06:54:47;;;;;;;;;;;23.10;46.10;;;;;;1581223;74;1504;-59
2023/05/26 06:56:49;;;;;;;;;;;23.10;46.00;;;;;;1570821;73;1120;-59
2023/05/26 06:58:51;;;;;;;;;;;23.10;46.30;;;;;;1585008;74;735;-60
2023/05/26 07:00:57;;;;;;;;;;;23.20;46.50;;;;;;1581255;74;663;-59
2023/05/26 07:02:59;;;;;;;;;;;23.20;46.30;;;;;;1582022;74;680;-59
2023/05/26 07:05:01;;;;;;;;;;;23.30;46.00;;;;;;1579045;74;702;-59
2023/05/26 07:07:03;;;;;;;;;;;23.30;45.90;;;;;;1585173;73;1153;-59
2023/05/26 07:09:05;;;;;;;;;;;23.30;46.10;;;;;;1587223;74;1327;-59
2023/05/26 07:11:07;;;;;;;;;;;23.30;45.60;;;;;;1577901;74;2087;-59
2023/05/26 07:13:08;;;;;;;;;;;23.30;46.10;;;;;;1574145;74;673;-59
2023/05/26 07:15:11;;;;;;;;;;;23.30;45.70;;;;;;1575513;74;775;-59
2023/05/26 07:17:12;;;;;;;;;;;23.30;45.90;;;;;;1574840;74;1139;-59
2023/05/26 07:19:14;;;;;;;;;;;23.30;45.20;;;;;;1585221;74;760;-59
2023/05/26 07:21:18;;;;;;;;;;;23.30;45.70;;;;;;1569091;74;710;-59
2023/05/26 07:23:20;;;;;;;;;;;23.40;45.70;;;;;;1571392;73;1583;-59
2023/05/26 07:25:21;;;;;;;;;;;23.30;45.90;;;;;;1570871;74;945;-59
2023/05/26 07:27:23;;;;;;;;;;;23.50;46.10;;;;;;1582556;74;1185;-59
2023/05/26 07:29:25;;;;;;;;;;;23.40;45.00;;;;;;1586064;74;710;-59
2023/05/26 07:31:27;;;;;;;;;;;23.30;45.70;;;;;;1583161;74;1927;-59
2023/05/26 07:33:29;;;;;;;;;;;23.30;45.70;;;;;;1579807;74;715;-59
2023/05/26 07:35:31;;;;;;;;;;;23.50;46.00;;;;;;1580417;74;678;-59
2023/05/26 07:37:33;;;;;;;;;;;23.40;45.90;;;;;;1577732;73;1438;-59
2023/05/26 07:39:35;;;;;;;;;;;23.50;45.00;;;;;;1567319;74;623;-59
2023/05/26 07:41:36;;;;;;;;;;;23.50;45.50;;;;;;1579686;74;694;-58
2023/05/26 07:43:38;;;;;;;;;;;23.50;45.60;;;;;;1583228;74;731;-59
2023/05/26 07:45:40;;;;;;;;;;;23.60;45.40;;;;;;1579049;74;706;-59
2023/05/26 07:47:42;;;;;;;;;;;23.60;45.60;;;;;;1582230;73;1143;-59
2023/05/26 07:49:44;;;;;;;;;;;23.60;45.30;;;;;;1582156;74;662;-59
2023/05/26 07:51:46;;;;;;;;;;;23.60;45.70;;;;;;1583498;74;1945;-59
2023/05/26 07:53:48;;;;;;;;;;;23.60;45.60;;;;;;1577102;74;797;-59
2023/05/26 07:55:50;;;;;;;;;;;23.60;45.40;;;;;;1577670;74;758;-59
2023/05/26 07:57:51;;;;;;;;;;;23.60;45.20;;;;;;1580738;74;1193;-59
2023/05/26 07:59:53;;;;;;;;;;;23.60;45.30;;;;;;1576701;74;790;-59
2023/05/26 08:01:55;;;;;;;;;;;23.60;45.20;;;;;;1580202;74;760;-59
2023/05/26 08:03:57;;;;;;;;;;;23.60;45.40;;;;;;1586951;74;732;-59
2023/05/26 08:05:59;;;;;;;;;;;23.60;45.20;;;;;;1587996;73;1461;-60
2023/05/26 08:08:01;;;;;;;;;;;23.60;45.30;;;;;;1580070;74;1106;-60
2023/05/26 08:10:03;;;;;;;;;;;23.60;45.40;;;;;;1573192;74;713;-59
2023/05/26 08:12:06;;;;;;;;;;;23.70;45.40;;;;;;1576173;74;1939;-59
2023/05/26 08:14:08;;;;;;;;;;;23.70;45.10;;;;;;1573945;74;780;-59
2023/05/26 08:16:10;;;;;;;;;;;23.70;44.90;;;;;;1578910;74;677;-59
2023/05/26 08:18:13;;;;;;;;;;;23.60;44.70;;;;;;1581120;74;1105;-59
2023/05/26 08:20:15;;;;;;;;;;;23.60;45.20;;;;;;1578468;74;1486;-59
2023/05/26 08:22:17;;;;;;;;;;;23.70;45.30;;;;;;1582425;74;744;-58
2023/05/26 08:24:22;;;;;;;;;;;23.60;43.70;;;;;;1580131;74;1099;-59
2023/05/26 08:26:22;;;;;;;;;;;23.50;45.20;;;;;;1593549;74;1582;-59
2023/05/26 08:28:24;;;;;;;;;;;23.60;45.00;;;;;;1592069;74;1140;-59
2023/05/26 08:30:26;;;;;;;;;;;23.60;45.60;;;;;;1591701;74;780;-59
2023/05/26 08:32:28;;;;;;;;;;;23.60;45.30;;;;;;1582696;74;1933;-59
2023/05/26 08:34:30;;;;;;;;;;;23.60;45.50;;;;;;1587739;74;732;-58
2023/05/26 08:36:32;;;;;;;;;;;23.70;45.60;;;;;;1588522;74;1144;-59
2023/05/26 08:38:34;;;;;;;;;;;23.60;44.60;;;;;;1583195;74;810;-59
2023/05/26 08:40:36;;;;;;;;;;;23.60;45.30;;;;;;1582651;74;742;-59
2023/05/26 08:42:39;;;;;;;;;;;23.60;45.50;;;;;;1580072;74;712;-59
2023/05/26 08:44:43;;;;;;;;;;;23.60;45.30;;;;;;1590898;74;930;-61
2023/05/26 08:46:45;;;;;;;;;;;23.60;45.40;;;;;;1588583;73;1506;-59
2023/05/26 08:48:48;;;;;;;;;;;23.60;45.50;;;;;;1584553;73;704;-59
2023/05/26 08:50:49;;;;;;;;;;;23.60;45.50;;;;;;1586792;74;1909;-59
2023/05/26 08:52:51;;;;;;;;;;;23.70;45.70;;;;;;1591447;74;786;-60
2023/05/26 08:54:53;;;;;;;;;;;23.70;45.70;;;;;;1592359;74;612;-59
2023/05/26 08:56:55;;;;;;;;;;;23.70;45.70;;;;;;1593461;74;1176;-59
2023/05/26 08:59:00;;;;;;;;;;;23.70;46.00;;;;;;1589320;74;697;-59
2023/05/26 09:01:01;;;;;;;;;;;23.70;45.90;;;;;;1581497;74;1452;-59
2023/05/26 09:03:03;;;;;;;;;;;23.70;45.40;;;;;;1580120;74;734;-59
2023/05/26 09:05:06;;;;;;;;;;;23.70;44.90;;;;;;1592523;74;701;-59
2023/05/26 09:07:08;;;;;;;;;;;23.70;45.00;;;;;;1579207;74;1169;-59
2023/05/26 09:09:11;;;;;;;;;;;23.50;45.00;;;;;;1573599;74;703;-59
2023/05/26 09:11:27;;;;;;;;;;;23.50;45.10;;;;;;1588895;74;1901;-59
2023/05/26 09:13:30;;;;;;;;;;;23.50;44.70;;;;;;1578386;74;721;-59
2023/05/26 09:15:32;;;;;;;;;;;23.60;45.00;;;;;;1585299;74;1313;-59
2023/05/26 09:17:34;;;;;;;;;;;23.50;45.50;;;;;;1584873;73;1107;-59
2023/05/26 09:19:36;;;;;;;;;;;23.50;45.30;;;;;;1587881;74;717;-60
2023/05/26 09:21:38;;;;;;;;;;;23.60;45.70;;;;;;1582536;73;709;-59
2023/05/26 09:23:40;;;;;;;;;;;23.60;45.40;;;;;;1532564;76;1086;-60
2023/05/26 09:25:42;;;;;;;;;;;23.60;45.60;;;;;;1539412;76;671;-59
2023/05/26 09:27:45;;;;;;;;;;;23.60;44.70;;;;;;1532077;76;1194;-59
2023/05/26 09:29:51;;;;;;;;;;;23.50;44.40;;;;;;1550005;74;1684;-60
2023/05/26 09:31:53;;;;;;;;;;;23.50;45.50;;;;;;1553317;76;1928;-59
2023/05/26 09:33:55;;;;;;;;;;;23.50;45.60;;;;;;1557561;76;792;-60
2023/05/26 09:35:57;;;;;;;;;;;23.50;45.20;;;;;;1557467;74;765;-60
2023/05/26 09:37:58;;;;;;;;;;;23.60;45.20;;;;;;1558369;74;1105;-59
2023/05/26 09:40:17;;;;;;;;;;;23.50;44.40;;;;;;1570209;74;707;-59
2023/05/26 09:42:19;;;;;;;;;;;23.50;44.90;;;;;;1554835;76;1658;-59
2023/05/26 09:44:21;;;;;;;;;;;23.50;45.30;;;;;;1528979;77;1393;-60
2023/05/26 09:46:23;;;;;;;;;;;23.50;45.10;;;;;;1523268;77;739;-59
2023/05/26 09:48:25;;;;;;;;;;;23.50;45.30;;;;;;1533065;76;1104;-60
2023/05/26 09:50:28;;;;;;;;;;;23.60;45.10;;;;;;1527040;76;721;-60
2023/05/26 09:52:30;;;;;;;;;;;23.40;45.10;;;;;;1557049;76;1951;-60
2023/05/26 09:54:32;;;;;;;;;;;23.50;45.40;;;;;;1580415;74;722;-60
2023/05/26 09:56:34;;;;;;;;;;;23.50;45.00;;;;;;1589323;73;1180;-60
2023/05/26 09:58:39;;;;;;;;;;;23.50;45.30;;;;;;1579817;74;1411;-59
2023/05/26 10:00:40;;;;;;;;;;;23.60;45.50;;;;;;1580077;74;1570;-59
2023/05/26 10:02:42;;;;;;;;;;;23.60;45.30;;;;;;1585709;74;726;-60
2023/05/26 10:04:44;;;;;;;;;;;23.60;45.60;;;;;;1581989;73;1154;-60
2023/05/26 10:06:47;;;;;;;;;;;23.50;45.00;;;;;;1585367;73;1123;-59
2023/05/26 10:08:50;;;;;;;;;;;23.40;45.20;;;;;;1586398;74;1204;-59
2023/05/26 10:10:52;;;;;;;;;;;23.50;44.90;;;;;;1576434;74;1295;-60
2023/05/26 10:12:53;;;;;;;;;;;23.50;44.00;;;;;;1583063;74;1938;-59
2023/05/26 10:14:56;;;;;;;;;;;23.40;44.70;;;;;;1588539;74;1231;-60
2023/05/26 10:16:57;;;;;;;;;;;23.50;45.20;;;;;;1582988;74;1244;-59
2023/05/26 10:18:59;;;;;;;;;;;23.50;44.90;;;;;;1594406;73;1201;-58
2023/05/26 10:21:02;;;;;;;;;;;23.40;44.60;;;;;;1582745;74;1189;-57
2023/05/26 10:23:08;;;;;;;;;;;23.40;44.20;;;;;;1586181;74;797;-57
2023/05/26 10:25:11;;;;;;;;;;;23.40;44.80;;;;;;1583844;74;1395;-59
2023/05/26 10:27:15;;;;;;;;;;;23.30;44.70;;;;;;1586522;74;1134;-60
2023/05/26 10:29:18;;;;;;;;;;;23.30;44.70;;;;;;1587942;74;773;-59
2023/05/26 10:31:21;;;;;;;;;;;23.30;44.70;;;;;;1581914;74;1933;-59
2023/05/26 10:33:24;;;;;;;;;;;23.30;44.80;;;;;;1582714;74;1576;-59
2023/05/26 10:35:27;;;;;;;;;;;23.30;44.60;;;;;;1554896;75;1264;-60
2023/05/26 10:37:29;;;;;;;;;;;23.30;44.60;;;;;;1584033;73;1093;-57
2023/05/26 10:39:31;;;;;;;;;;;23.20;43.90;;;;;;1588865;74;1292;-58
2023/05/26 10:41:37;;;;;;;;;;;23.20;43.90;;;;;;1584352;74;776;-59
2023/05/26 10:43:39;;;;;;;;;;;23.10;44.90;;;;;;1586224;74;683;-59
2023/05/26 10:45:45;;;;;;;;;;;23.20;44.90;;;;;;1590836;74;703;-60
2023/05/26 10:47:48;;;;;;;;;;;23.20;44.00;;;;;;1574789;73;1702;-57
2023/05/26 10:49:57;;;;;;;;;;;23.20;44.70;;;;;;1572200;74;710;-58
2023/05/26 10:51:59;;;;;;;;;;;23.20;44.60;;;;;;1586698;74;1949;-59
2023/05/26 10:54:02;;;;;;;;;;;23.20;44.10;;;;;;1590253;74;1442;-59
2023/05/26 10:56:05;;;;;;;;;;;23.20;43.90;;;;;;1576403;74;1099;-58
2023/05/26 10:58:25;;;;;;;;;;;23.10;44.20;;;;;;1583996;74;1159;-58
2023/05/26 11:00:27;;;;;;;;;;;23.10;43.90;;;;;;1578563;74;671;-58
2023/05/26 11:02:29;;;;;;;;;;;23.10;44.70;;;;;;1590472;74;727;-58
2023/05/26 11:04:41;;;;;;;;;;;23.10;44.60;;;;;;1548991;75;1274;-58
2023/05/26 11:06:45;;;;;;;;;;;23.10;44.90;;;;;;1551069;75;1091;-57
2023/05/26 11:08:50;;;;;;;;;;;23.20;45.00;;;;;;1588682;74;1369;-58
2023/05/26 11:11:05;;;;;;;;;;;23.20;44.80;;;;;;1575676;73;726;-57
2023/05/26 11:13:07;;;;;;;;;;;23.10;44.70;;;;;;1568992;74;1937;-58
2023/05/26 11:15:17;;;;;;;;;;;23.20;44.90;;;;;;1566261;74;785;-58
2023/05/26 11:17:23;;;;;;;;;;;23.10;45.00;;;;;;1565792;74;1621;-57
2023/05/26 11:19:31;;;;;;;;;;;23.20;44.40;;;;;;1578550;74;1372;-57
2023/05/26 11:21:34;;;;;;;;;;;23.10;45.10;;;;;;1576374;74;1400;-57
2023/05/26 11:23:37;;;;;;;;;;;23.20;44.70;;;;;;1581701;74;717;-57
2023/05/26 11:25:48;;;;;;;;;;;23.20;44.70;;;;;;1581535;74;699;-59
2023/05/26 11:27:50;;;;;;;;;;;23.20;44.90;;;;;;1583550;74;1149;-58
2023/05/26 11:30:00;;;;;;;;;;;23.20;45.10;;;;;;1584576;74;704;-59
2023/05/26 11:32:03;;;;;;;;;;;23.20;44.20;;;;;;1567895;74;1933;-56
2023/05/26 11:34:05;;;;;;;;;;;23.10;45.10;;;;;;1575824;74;804;-58
2023/05/26 11:36:08;;;;;;;;;;;23.10;44.10;;;;;;1577905;74;1241;-56
2023/05/26 11:38:10;;;;;;;;;;;23.10;44.90;;;;;;1582139;74;1367;-56
2023/05/26 11:40:12;;;;;;;;;;;23.20;44.40;;;;;;1589925;74;1236;-56
2023/05/26 11:42:14;;;;;;;;;;;23.10;44.70;;;;;;1583707;74;1210;-57
2023/05/26 11:44:16;;;;;;;;;;;23.10;45.00;;;;;;1587048;74;1193;-56
2023/05/26 11:46:18;;;;;;;;;;;23.20;45.20;;;;;;1585649;74;1284;-58
2023/05/26 11:48:19;;;;;;;;;;;23.20;45.30;;;;;;1583004;74;1424;-57
2023/05/26 11:50:21;;;;;;;;;;;23.10;45.10;;;;;;1572972;74;1414;-56
2023/05/26 11:52:23;;;;;;;;;;;23.10;45.00;;;;;;1586684;74;1934;-56
2023/05/26 11:54:25;;;;;;;;;;;23.10;44.30;;;;;;1589532;74;724;-58
2023/05/26 11:56:28;;;;;;;;;;;23.10;45.10;;;;;;1591305;74;709;-56
2023/05/26 11:58:32;;;;;;;;;;;23.10;44.80;;;;;;1583839;74;1499;-57
2023/05/26 12:00:36;;;;;;;;;;;23.00;44.40;;;;;;1586494;74;1173;-56
2023/05/26 12:02:37;;;;;;;;;;;23.00;44.60;;;;;;1585703;74;1261;-56
2023/05/26 12:04:41;;;;;;;;;;;23.00;44.70;;;;;;1586850;74;1513;-56
2023/05/26 12:06:44;;;;;;;;;;;23.00;44.80;;;;;;1588000;73;1246;-57
2023/05/26 12:08:47;;;;;;;;;;;23.00;44.80;;;;;;1587179;74;1240;-56